Roth, Germany

7:15 PM CEST on August 29, 2014 (GMT +0200)
IBAYERNP5 | Change Station
CLOSE
Current Station
Personal Weather Station
Location: Pruppach (Pyrbaum), Bavaria
Elevation: 1335 ft
Nearby Weather Stations

Elev 1335 ft 49.28 °N, 11.23 °E | Updated 5 minutes ago

Clear
Clear
67.6 °F
Feels Like 67.6 °F
N
0.1
Wind Variable Wind from West
Gusts 3.0 mph

Today
High -- | Low -- °F
--% Chance of Precip.
Yesterday
High -- | Low -- °F
Precip. -- in
6:27 AM 8:04 PM
Waxing Crescent, 15% visible
Pressure 30.05 in
Visibility 6.2 miles
Clouds Clear
Dew Point 59 °F
Humidity 73%
Rainfall 0.02 in
Snow Depth Not available.
UV 1 out of 12
Pollen Not available.
Air Quality Not available.
Flu Activity Not available.
METAR ETEB 291658Z AUTO 24007KT 9999 CLR 20/12 A3004 RMK AO2 DZB1644E1649 SLP174 P0000 T02020121

More Conditions Fewer Conditions

Pressure 30.05 in
Visibility 6.2 miles
Clouds Clear
Dew Point 59 °F
Humidity 73%
Rainfall 0.02 in
Snow Depth Not available.
UV 1 out of 12
Pollen Not available.
Air Quality Not available.
Flu Activity Not available.
METAR ETEB 291658Z AUTO 24007KT 9999 CLR 20/12 A3004 RMK AO2 DZB1644E1649 SLP174 P0000 T02020121

More Conditions Fewer Conditions

10-Day Weather Forecast

Almanac

Astronomy

Aug. 29, 2014 Rise Set
Actual Time 6:27 AM CEST 8:04 PM CEST
Civil Twilight 5:53 AM CEST 8:38 PM CEST
Nautical Twilight 5:12 AM CEST 9:19 PM CEST
Astronomical Twilight 4:27 AM CEST 10:03 PM CEST
Moon 10:23 AM CEST 9:28 PM CEST
Length of Visible Light 14h 44m
Length of Day
13h 37m
Tomorrow will be 3m 29s shorter.
Waxing Crescent, 15% of the Moon is Illuminated
Today
Waxing Crescent
Sep 2
First Quarter
Sep 8
Full
Sep 15
Last Quarter
Sep 24
New

Today's Extremes

Country Highs Country Lows

Community

WunderPhotos

Upload Photos

1,748,298 photos uploaded!

Nearby

Snow Depth

Not available.

Earthquake Activity

City Distance Mag. Time & Date
No recent earthquake activity has been reported nearby.
Minimum magnitude displayed is 2.5.

Coastal Water Temperatures

Place Temperature
No Stations Reporting

Nearby Weather Stations